Manea, United Kingdom
Current Conditions -  °F | °C
As of 10:58 AM on Saturday 25 Oct 2014 (Local Time) from EGUN Reporting Station
Clear Clear  
Wind Chill: 53°   Ceiling: Unl
Heat Index: 53°   Visibility: 6mi
Dew Point: 53°   Wind: 13mph
Humidity: 100%   Direction: 230°SW
Pressure: 30.03"   Gusts: NA
Location:  52.48°N, 0.18°E
Report Text: EGUN 250958Z AUTO 23011KT 9999 CLR 12/12 A3003 RMK AO2 SLP172 T01190119 $
Loading
Personal Weather Stations






























Interactive Weather Map New forecast layout! Learn more

10-Day Weather Forecast

Advertisements
Track Severe Weather on mobile